sensor_id;sensor_type;location;lat;lon;timestamp;temperature;humidity
780;DHT22;373;49.342;8.146;2022-09-14T00:01:32;19.40;99.90
780;DHT22;373;49.342;8.146;2022-09-14T00:04:02;19.50;99.90
780;DHT22;373;49.342;8.146;2022-09-14T00:06:30;19.50;99.90
780;DHT22;373;49.342;8.146;2022-09-14T00:08:58;19.60;99.90
780;DHT22;373;49.342;8.146;2022-09-14T00:11:28;19.70;99.90
780;DHT22;373;49.342;8.146;2022-09-14T00:13:57;19.70;99.90
780;DHT22;373;49.342;8.146;2022-09-14T00:16:31;19.60;99.90
780;DHT22;373;49.342;8.146;2022-09-14T00:19:00;19.50;99.90
780;DHT22;373;49.342;8.146;2022-09-14T00:21:30;19.40;99.90
780;DHT22;373;49.342;8.146;2022-09-14T00:23:57;19.30;99.90
780;DHT22;373;49.342;8.146;2022-09-14T00:26:24;19.30;99.90
780;DHT22;373;49.342;8.146;2022-09-14T00:28:56;19.60;99.90
780;DHT22;373;49.342;8.146;2022-09-14T00:31:24;19.80;99.90
780;DHT22;373;49.342;8.146;2022-09-14T00:33:52;19.70;99.90
780;DHT22;373;49.342;8.146;2022-09-14T00:36:21;19.70;99.90
780;DHT22;373;49.342;8.146;2022-09-14T00:38:49;19.80;99.90
780;DHT22;373;49.342;8.146;2022-09-14T00:41:18;20.00;99.90
780;DHT22;373;49.342;8.146;2022-09-14T00:43:55;20.30;99.90
780;DHT22;373;49.342;8.146;2022-09-14T00:46:25;20.10;99.90
780;DHT22;373;49.342;8.146;2022-09-14T00:48:52;20.10;99.90
780;DHT22;373;49.342;8.146;2022-09-14T00:51:20;20.20;99.90
780;DHT22;373;49.342;8.146;2022-09-14T00:53:48;20.30;99.90
780;DHT22;373;49.342;8.146;2022-09-14T00:56:15;20.40;99.90
780;DHT22;373;49.342;8.146;2022-09-14T00:58:46;20.40;99.90
780;DHT22;373;49.342;8.146;2022-09-14T01:01:14;20.80;99.90
780;DHT22;373;49.342;8.146;2022-09-14T01:03:42;21.00;99.90
780;DHT22;373;49.342;8.146;2022-09-14T01:06:16;21.20;99.90
780;DHT22;373;49.342;8.146;2022-09-14T01:09:00;21.30;99.90
780;DHT22;373;49.342;8.146;2022-09-14T01:11:41;21.00;99.90
780;DHT22;373;49.342;8.146;2022-09-14T01:14:15;20.90;99.90
780;DHT22;373;49.342;8.146;2022-09-14T01:16:48;21.00;99.90
780;DHT22;373;49.342;8.146;2022-09-14T01:19:24;20.70;99.90
780;DHT22;373;49.342;8.146;2022-09-14T01:22:04;20.30;99.90
780;DHT22;373;49.342;8.146;2022-09-14T01:24:42;20.30;99.90
780;DHT22;373;49.342;8.146;2022-09-14T01:27:27;20.60;99.90
780;DHT22;373;49.342;8.146;2022-09-14T01:30:02;20.80;99.90
780;DHT22;373;49.342;8.146;2022-09-14T01:32:33;21.10;99.90
780;DHT22;373;49.342;8.146;2022-09-14T01:35:05;21.00;99.90
780;DHT22;373;49.342;8.146;2022-09-14T01:37:39;20.80;99.90
780;DHT22;373;49.342;8.146;2022-09-14T01:40:13;20.40;99.90
780;DHT22;373;49.342;8.146;2022-09-14T01:42:47;20.40;99.90
780;DHT22;373;49.342;8.146;2022-09-14T01:45:17;20.50;99.90
780;DHT22;373;49.342;8.146;2022-09-14T01:47:47;20.70;99.90
780;DHT22;373;49.342;8.146;2022-09-14T01:50:21;20.70;99.90
780;DHT22;373;49.342;8.146;2022-09-14T01:52:53;20.60;99.90
780;DHT22;373;49.342;8.146;2022-09-14T01:55:23;20.20;99.90
780;DHT22;373;49.342;8.146;2022-09-14T01:57:58;19.80;99.90
780;DHT22;373;49.342;8.146;2022-09-14T02:00:27;19.30;99.90
780;DHT22;373;49.342;8.146;2022-09-14T02:02:59;19.20;99.90
780;DHT22;373;49.342;8.146;2022-09-14T02:05:33;19.50;99.90
780;DHT22;373;49.342;8.146;2022-09-14T02:08:00;19.60;99.90
780;DHT22;373;49.342;8.146;2022-09-14T02:10:28;19.80;99.90
780;DHT22;373;49.342;8.146;2022-09-14T02:12:56;20.10;99.90
780;DHT22;373;49.342;8.146;2022-09-14T02:15:24;20.30;99.90
780;DHT22;373;49.342;8.146;2022-09-14T02:17:52;20.50;99.90
780;DHT22;373;49.342;8.146;2022-09-14T02:20:23;20.40;99.90
780;DHT22;373;49.342;8.146;2022-09-14T02:22:53;20.30;99.90
780;DHT22;373;49.342;8.146;2022-09-14T02:25:21;20.00;99.90
780;DHT22;373;49.342;8.146;2022-09-14T02:27:48;20.00;99.90
780;DHT22;373;49.342;8.146;2022-09-14T02:30:18;20.30;99.90
780;DHT22;373;49.342;8.146;2022-09-14T02:32:58;20.60;99.90
780;DHT22;373;49.342;8.146;2022-09-14T02:35:33;20.60;99.90
780;DHT22;373;49.342;8.146;2022-09-14T02:38:09;20.50;99.90
780;DHT22;373;49.342;8.146;2022-09-14T02:40:44;20.30;99.90
780;DHT22;373;49.342;8.146;2022-09-14T02:43:24;20.10;99.90
780;DHT22;373;49.342;8.146;2022-09-14T02:46:00;20.30;99.90
780;DHT22;373;49.342;8.146;2022-09-14T02:48:36;20.50;99.90
780;DHT22;373;49.342;8.146;2022-09-14T02:51:08;20.80;99.90
780;DHT22;373;49.342;8.146;2022-09-14T02:53:43;20.40;99.90
780;DHT22;373;49.342;8.146;2022-09-14T02:56:13;20.20;99.90
780;DHT22;373;49.342;8.146;2022-09-14T02:58:41;20.40;99.90
780;DHT22;373;49.342;8.146;2022-09-14T03:01:12;20.50;99.90
780;DHT22;373;49.342;8.146;2022-09-14T03:03:39;20.70;99.90
780;DHT22;373;49.342;8.146;2022-09-14T03:06:06;21.00;99.90
780;DHT22;373;49.342;8.146;2022-09-14T03:08:34;21.00;99.90
780;DHT22;373;49.342;8.146;2022-09-14T03:11:01;21.10;99.90
780;DHT22;373;49.342;8.146;2022-09-14T03:13:29;21.30;99.90
780;DHT22;373;49.342;8.146;2022-09-14T03:15:56;21.10;99.90
780;DHT22;373;49.342;8.146;2022-09-14T03:18:24;21.20;99.90
780;DHT22;373;49.342;8.146;2022-09-14T03:20:51;21.00;99.90
780;DHT22;373;49.342;8.146;2022-09-14T03:23:18;20.60;99.90
780;DHT22;373;49.342;8.146;2022-09-14T03:25:45;20.50;99.90
780;DHT22;373;49.342;8.146;2022-09-14T03:28:12;20.40;99.90
780;DHT22;373;49.342;8.146;2022-09-14T03:30:39;20.10;99.90
780;DHT22;373;49.342;8.146;2022-09-14T03:33:06;20.40;99.90
780;DHT22;373;49.342;8.146;2022-09-14T03:35:34;20.30;99.90
780;DHT22;373;49.342;8.146;2022-09-14T03:38:02;20.20;99.90
780;DHT22;373;49.342;8.146;2022-09-14T03:40:29;20.00;99.90
780;DHT22;373;49.342;8.146;2022-09-14T03:42:56;20.10;99.90
780;DHT22;373;49.342;8.146;2022-09-14T03:45:23;20.10;99.90
780;DHT22;373;49.342;8.146;2022-09-14T03:47:50;20.00;99.90
780;DHT22;373;49.342;8.146;2022-09-14T03:50:18;20.00;99.90
780;DHT22;373;49.342;8.146;2022-09-14T03:52:46;20.30;99.90
780;DHT22;373;49.342;8.146;2022-09-14T03:55:14;20.30;99.90
780;DHT22;373;49.342;8.146;2022-09-14T03:57:41;20.40;99.90
780;DHT22;373;49.342;8.146;2022-09-14T04:00:09;20.10;99.90
780;DHT22;373;49.342;8.146;2022-09-14T04:02:40;19.80;99.90
780;DHT22;373;49.342;8.146;2022-09-14T04:05:07;19.60;99.90
780;DHT22;373;49.342;8.146;2022-09-14T04:07:34;19.80;99.90
780;DHT22;373;49.342;8.146;2022-09-14T04:10:04;20.00;99.90
780;DHT22;373;49.342;8.146;2022-09-14T04:12:33;19.50;99.90
780;DHT22;373;49.342;8.146;2022-09-14T04:15:00;19.20;99.90
780;DHT22;373;49.342;8.146;2022-09-14T04:17:28;19.30;99.90
780;DHT22;373;49.342;8.146;2022-09-14T04:19:55;19.40;99.90
780;DHT22;373;49.342;8.146;2022-09-14T04:22:22;19.50;99.90
780;DHT22;373;49.342;8.146;2022-09-14T04:24:49;19.40;99.90
780;DHT22;373;49.342;8.146;2022-09-14T04:27:18;19.50;99.90
780;DHT22;373;49.342;8.146;2022-09-14T04:29:47;19.90;99.90
780;DHT22;373;49.342;8.146;2022-09-14T04:32:15;20.10;99.90
780;DHT22;373;49.342;8.146;2022-09-14T04:34:42;20.10;99.90
780;DHT22;373;49.342;8.146;2022-09-14T04:37:09;20.10;99.90
780;DHT22;373;49.342;8.146;2022-09-14T04:39:36;20.20;99.90
780;DHT22;373;49.342;8.146;2022-09-14T04:42:05;20.50;99.90
780;DHT22;373;49.342;8.146;2022-09-14T04:44:34;20.20;99.90
780;DHT22;373;49.342;8.146;2022-09-14T04:47:01;20.10;99.90
780;DHT22;373;49.342;8.146;2022-09-14T04:49:28;19.70;99.90
780;DHT22;373;49.342;8.146;2022-09-14T04:51:55;19.90;99.90
780;DHT22;373;49.342;8.146;2022-09-14T04:54:22;20.30;99.90
780;DHT22;373;49.342;8.146;2022-09-14T04:56:49;20.50;99.90
780;DHT22;373;49.342;8.146;2022-09-14T04:59:16;20.40;99.90
780;DHT22;373;49.342;8.146;2022-09-14T05:01:45;20.20;99.90
780;DHT22;373;49.342;8.146;2022-09-14T05:04:13;20.30;99.90
780;DHT22;373;49.342;8.146;2022-09-14T05:06:41;20.00;99.90
780;DHT22;373;49.342;8.146;2022-09-14T05:09:11;20.00;99.90
780;DHT22;373;49.342;8.146;2022-09-14T05:11:39;20.10;99.90
780;DHT22;373;49.342;8.146;2022-09-14T05:14:06;20.00;99.90
780;DHT22;373;49.342;8.146;2022-09-14T05:16:37;20.10;99.90
780;DHT22;373;49.342;8.146;2022-09-14T05:19:07;20.10;99.90
780;DHT22;373;49.342;8.146;2022-09-14T05:21:35;20.30;99.90
780;DHT22;373;49.342;8.146;2022-09-14T05:24:08;20.50;99.90
780;DHT22;373;49.342;8.146;2022-09-14T05:26:37;20.60;99.90
780;DHT22;373;49.342;8.146;2022-09-14T05:29:04;20.90;99.90
780;DHT22;373;49.342;8.146;2022-09-14T05:31:32;20.90;99.90
780;DHT22;373;49.342;8.146;2022-09-14T05:33:59;20.50;99.90
780;DHT22;373;49.342;8.146;2022-09-14T05:36:28;20.10;99.90
780;DHT22;373;49.342;8.146;2022-09-14T05:38:55;20.00;99.90
780;DHT22;373;49.342;8.146;2022-09-14T05:41:23;19.80;99.90
780;DHT22;373;49.342;8.146;2022-09-14T05:43:50;19.50;99.90
780;DHT22;373;49.342;8.146;2022-09-14T05:46:17;19.20;99.90
780;DHT22;373;49.342;8.146;2022-09-14T05:48:46;19.30;99.90
780;DHT22;373;49.342;8.146;2022-09-14T05:51:18;19.40;99.90
780;DHT22;373;49.342;8.146;2022-09-14T05:53:48;19.60;99.90
780;DHT22;373;49.342;8.146;2022-09-14T05:56:15;19.70;99.90
780;DHT22;373;49.342;8.146;2022-09-14T05:58:43;19.60;99.90
780;DHT22;373;49.342;8.146;2022-09-14T06:01:12;19.50;99.90
780;DHT22;373;49.342;8.146;2022-09-14T06:03:40;19.40;99.90
780;DHT22;373;49.342;8.146;2022-09-14T06:06:09;19.40;99.90
780;DHT22;373;49.342;8.146;2022-09-14T06:08:37;19.50;99.90
780;DHT22;373;49.342;8.146;2022-09-14T06:11:08;19.60;99.90
780;DHT22;373;49.342;8.146;2022-09-14T06:13:35;19.70;99.90
780;DHT22;373;49.342;8.146;2022-09-14T06:16:03;20.20;99.90
780;DHT22;373;49.342;8.146;2022-09-14T06:18:31;20.50;99.90
780;DHT22;373;49.342;8.146;2022-09-14T06:20:58;20.80;99.90
780;DHT22;373;49.342;8.146;2022-09-14T06:23:26;20.80;99.90
780;DHT22;373;49.342;8.146;2022-09-14T06:25:54;21.00;99.90
780;DHT22;373;49.342;8.146;2022-09-14T06:28:23;20.70;99.90
780;DHT22;373;49.342;8.146;2022-09-14T06:30:51;20.40;99.90
780;DHT22;373;49.342;8.146;2022-09-14T06:33:18;20.00;99.90
780;DHT22;373;49.342;8.146;2022-09-14T06:35:54;19.70;99.90
780;DHT22;373;49.342;8.146;2022-09-14T06:38:21;19.70;99.90
780;DHT22;373;49.342;8.146;2022-09-14T06:40:52;19.60;99.90
780;DHT22;373;49.342;8.146;2022-09-14T06:43:22;19.70;99.90
780;DHT22;373;49.342;8.146;2022-09-14T06:45:57;20.00;99.90
780;DHT22;373;49.342;8.146;2022-09-14T06:48:25;20.20;99.90
780;DHT22;373;49.342;8.146;2022-09-14T06:50:52;20.40;99.90
780;DHT22;373;49.342;8.146;2022-09-14T06:53:19;20.50;99.90
780;DHT22;373;49.342;8.146;2022-09-14T06:55:46;20.20;99.90
780;DHT22;373;49.342;8.146;2022-09-14T06:58:14;20.10;99.90
780;DHT22;373;49.342;8.146;2022-09-14T07:00:42;19.50;99.90
780;DHT22;373;49.342;8.146;2022-09-14T07:03:09;19.10;99.90
780;DHT22;373;49.342;8.146;2022-09-14T07:05:36;18.80;99.90
780;DHT22;373;49.342;8.146;2022-09-14T07:08:03;18.90;99.90
780;DHT22;373;49.342;8.146;2022-09-14T07:10:30;19.00;99.90
780;DHT22;373;49.342;8.146;2022-09-14T07:12:57;19.30;99.90
780;DHT22;373;49.342;8.146;2022-09-14T07:15:25;19.70;99.90
780;DHT22;373;49.342;8.146;2022-09-14T07:17:53;19.80;99.90
780;DHT22;373;49.342;8.146;2022-09-14T07:20:20;20.10;99.90
780;DHT22;373;49.342;8.146;2022-09-14T07:22:48;20.40;99.90
780;DHT22;373;49.342;8.146;2022-09-14T07:25:15;20.80;99.90
780;DHT22;373;49.342;8.146;2022-09-14T07:27:42;20.70;99.90
780;DHT22;373;49.342;8.146;2022-09-14T07:30:09;20.80;99.90
780;DHT22;373;49.342;8.146;2022-09-14T07:32:37;21.10;99.90
780;DHT22;373;49.342;8.146;2022-09-14T07:35:06;21.10;99.90
780;DHT22;373;49.342;8.146;2022-09-14T07:37:33;21.10;99.90
780;DHT22;373;49.342;8.146;2022-09-14T07:40:00;20.90;99.90
780;DHT22;373;49.342;8.146;2022-09-14T07:42:28;21.00;99.90
780;DHT22;373;49.342;8.146;2022-09-14T07:44:56;21.00;99.90
780;DHT22;373;49.342;8.146;2022-09-14T07:47:23;21.40;99.90
780;DHT22;373;49.342;8.146;2022-09-14T07:49:50;21.90;99.90
780;DHT22;373;49.342;8.146;2022-09-14T07:52:19;22.20;99.90
780;DHT22;373;49.342;8.146;2022-09-14T07:54:46;22.10;99.90
780;DHT22;373;49.342;8.146;2022-09-14T07:57:13;21.90;99.90
780;DHT22;373;49.342;8.146;2022-09-14T07:59:40;21.80;99.90
780;DHT22;373;49.342;8.146;2022-09-14T08:02:09;21.60;99.90
780;DHT22;373;49.342;8.146;2022-09-14T08:04:37;21.40;99.90
780;DHT22;373;49.342;8.146;2022-09-14T08:07:05;21.30;99.90
780;DHT22;373;49.342;8.146;2022-09-14T08:09:33;21.30;99.90
780;DHT22;373;49.342;8.146;2022-09-14T08:12:01;21.40;99.90
780;DHT22;373;49.342;8.146;2022-09-14T08:14:30;21.80;99.90
780;DHT22;373;49.342;8.146;2022-09-14T08:16:57;21.50;99.90
780;DHT22;373;49.342;8.146;2022-09-14T08:19:25;21.30;99.90
780;DHT22;373;49.342;8.146;2022-09-14T08:21:52;21.50;99.90
780;DHT22;373;49.342;8.146;2022-09-14T08:24:20;21.60;99.90
780;DHT22;373;49.342;8.146;2022-09-14T08:26:49;21.30;99.90
780;DHT22;373;49.342;8.146;2022-09-14T08:29:17;21.60;99.90
780;DHT22;373;49.342;8.146;2022-09-14T08:31:45;21.90;99.90
780;DHT22;373;49.342;8.146;2022-09-14T08:34:13;22.20;99.90
780;DHT22;373;49.342;8.146;2022-09-14T08:36:42;22.20;99.90
780;DHT22;373;49.342;8.146;2022-09-14T08:39:11;22.40;99.90
780;DHT22;373;49.342;8.146;2022-09-14T08:41:45;22.40;99.90
780;DHT22;373;49.342;8.146;2022-09-14T08:44:18;22.70;99.90
780;DHT22;373;49.342;8.146;2022-09-14T08:46:48;22.60;99.90
780;DHT22;373;49.342;8.146;2022-09-14T08:49:20;22.40;99.90
780;DHT22;373;49.342;8.146;2022-09-14T08:51:49;22.60;99.90
780;DHT22;373;49.342;8.146;2022-09-14T08:54:16;23.20;99.90
780;DHT22;373;49.342;8.146;2022-09-14T08:56:47;23.70;99.90
780;DHT22;373;49.342;8.146;2022-09-14T08:59:34;23.70;99.90
780;DHT22;373;49.342;8.146;2022-09-14T09:02:20;23.80;99.90
780;DHT22;373;49.342;8.146;2022-09-14T09:04:51;23.90;99.90
780;DHT22;373;49.342;8.146;2022-09-14T09:07:25;23.80;99.90
780;DHT22;373;49.342;8.146;2022-09-14T09:09:55;23.90;99.90
780;DHT22;373;49.342;8.146;2022-09-14T09:12:29;24.30;99.90
780;DHT22;373;49.342;8.146;2022-09-14T09:15:04;25.50;99.90
780;DHT22;373;49.342;8.146;2022-09-14T09:17:35;26.50;99.90
780;DHT22;373;49.342;8.146;2022-09-14T09:20:10;27.30;99.90
780;DHT22;373;49.342;8.146;2022-09-14T09:22:42;27.60;99.90
780;DHT22;373;49.342;8.146;2022-09-14T09:25:16;28.00;99.90
780;DHT22;373;49.342;8.146;2022-09-14T09:27:45;28.00;99.90
780;DHT22;373;49.342;8.146;2022-09-14T09:30:15;27.60;99.90
780;DHT22;373;49.342;8.146;2022-09-14T09:32:43;26.50;99.90
780;DHT22;373;49.342;8.146;2022-09-14T09:35:30;27.10;99.90
780;DHT22;373;49.342;8.146;2022-09-14T09:38:00;27.80;99.90
780;DHT22;373;49.342;8.146;2022-09-14T09:40:36;28.40;99.90
780;DHT22;373;49.342;8.146;2022-09-14T09:43:11;29.00;99.90
780;DHT22;373;49.342;8.146;2022-09-14T09:45:49;29.50;97.90
780;DHT22;373;49.342;8.146;2022-09-14T09:48:18;28.90;98.00
780;DHT22;373;49.342;8.146;2022-09-14T09:50:49;28.50;99.50
780;DHT22;373;49.342;8.146;2022-09-14T09:53:20;28.60;99.50
780;DHT22;373;49.342;8.146;2022-09-14T09:55:48;28.70;99.90
780;DHT22;373;49.342;8.146;2022-09-14T09:58:26;29.20;99.90
780;DHT22;373;49.342;8.146;2022-09-14T10:00:57;29.40;97.60
780;DHT22;373;49.342;8.146;2022-09-14T10:03:31;29.70;96.10
780;DHT22;373;49.342;8.146;2022-09-14T10:06:04;29.80;96.70
780;DHT22;373;49.342;8.146;2022-09-14T10:08:32;29.80;96.90
780;DHT22;373;49.342;8.146;2022-09-14T10:11:01;29.80;96.60
780;DHT22;373;49.342;8.146;2022-09-14T10:13:31;29.10;98.60
780;DHT22;373;49.342;8.146;2022-09-14T10:16:11;29.00;98.80
780;DHT22;373;49.342;8.146;2022-09-14T10:18:44;29.00;97.30
780;DHT22;373;49.342;8.146;2022-09-14T10:21:12;28.60;98.30
780;DHT22;373;49.342;8.146;2022-09-14T10:23:40;27.90;98.70
780;DHT22;373;49.342;8.146;2022-09-14T10:26:24;28.30;99.90
780;DHT22;373;49.342;8.146;2022-09-14T10:28:52;28.70;97.50
780;DHT22;373;49.342;8.146;2022-09-14T10:31:30;28.00;98.30
780;DHT22;373;49.342;8.146;2022-09-14T10:33:59;28.10;99.90
780;DHT22;373;49.342;8.146;2022-09-14T10:36:29;28.50;97.10
780;DHT22;373;49.342;8.146;2022-09-14T10:39:00;28.90;97.30
780;DHT22;373;49.342;8.146;2022-09-14T10:41:35;29.00;97.40
780;DHT22;373;49.342;8.146;2022-09-14T10:47:17;28.90;95.90
780;DHT22;373;49.342;8.146;2022-09-14T10:49:59;27.90;97.80
780;DHT22;373;49.342;8.146;2022-09-14T10:52:39;27.50;98.80
780;DHT22;373;49.342;8.146;2022-09-14T10:55:23;26.80;99.60
780;DHT22;373;49.342;8.146;2022-09-14T10:58:08;26.90;99.90
780;DHT22;373;49.342;8.146;2022-09-14T11:00:43;27.20;99.90
780;DHT22;373;49.342;8.146;2022-09-14T11:03:26;27.20;99.00
780;DHT22;373;49.342;8.146;2022-09-14T11:06:06;27.40;99.90
780;DHT22;373;49.342;8.146;2022-09-14T11:08:39;27.60;99.90
780;DHT22;373;49.342;8.146;2022-09-14T11:11:24;28.00;98.80
780;DHT22;373;49.342;8.146;2022-09-14T11:13:59;27.40;99.90
780;DHT22;373;49.342;8.146;2022-09-14T11:16:44;27.30;99.60
780;DHT22;373;49.342;8.146;2022-09-14T11:19:24;27.40;99.90
780;DHT22;373;49.342;8.146;2022-09-14T11:21:58;27.10;99.80
780;DHT22;373;49.342;8.146;2022-09-14T11:24:34;26.60;99.90
780;DHT22;373;49.342;8.146;2022-09-14T11:27:06;26.90;99.90
780;DHT22;373;49.342;8.146;2022-09-14T11:29:38;26.70;99.90
780;DHT22;373;49.342;8.146;2022-09-14T11:32:11;26.30;99.90
780;DHT22;373;49.342;8.146;2022-09-14T11:34:45;25.90;99.90
780;DHT22;373;49.342;8.146;2022-09-14T11:37:15;26.20;99.90
780;DHT22;373;49.342;8.146;2022-09-14T11:39:46;26.20;99.90
780;DHT22;373;49.342;8.146;2022-09-14T11:42:19;26.30;99.90
780;DHT22;373;49.342;8.146;2022-09-14T11:44:52;26.50;99.90
780;DHT22;373;49.342;8.146;2022-09-14T11:47:21;26.70;99.90
780;DHT22;373;49.342;8.146;2022-09-14T11:49:55;26.50;99.90
780;DHT22;373;49.342;8.146;2022-09-14T11:52:26;26.50;99.90
780;DHT22;373;49.342;8.146;2022-09-14T11:54:53;26.50;99.90
780;DHT22;373;49.342;8.146;2022-09-14T11:57:23;26.40;99.90
780;DHT22;373;49.342;8.146;2022-09-14T11:59:52;26.40;99.90
780;DHT22;373;49.342;8.146;2022-09-14T12:02:54;26.30;99.90
780;DHT22;373;49.342;8.146;2022-09-14T12:08:38;25.90;99.90
780;DHT22;373;49.342;8.146;2022-09-14T12:11:24;25.90;99.90
780;DHT22;373;49.342;8.146;2022-09-14T12:14:25;25.70;99.90
780;DHT22;373;49.342;8.146;2022-09-14T12:17:21;25.40;99.90
780;DHT22;373;49.342;8.146;2022-09-14T12:19:50;25.10;99.90
780;DHT22;373;49.342;8.146;2022-09-14T12:22:24;24.90;99.90
780;DHT22;373;49.342;8.146;2022-09-14T12:25:12;24.70;99.90
780;DHT22;373;49.342;8.146;2022-09-14T12:27:41;24.50;99.90
780;DHT22;373;49.342;8.146;2022-09-14T12:30:34;24.60;99.90
780;DHT22;373;49.342;8.146;2022-09-14T12:33:42;24.50;99.90
780;DHT22;373;49.342;8.146;2022-09-14T12:36:54;24.60;99.90
780;DHT22;373;49.342;8.146;2022-09-14T12:39:18;24.50;99.90
780;DHT22;373;49.342;8.146;2022-09-14T12:42:26;24.30;99.90
780;DHT22;373;49.342;8.146;2022-09-14T12:44:53;24.30;99.90
780;DHT22;373;49.342;8.146;2022-09-14T12:50:28;24.00;99.90
780;DHT22;373;49.342;8.146;2022-09-14T12:53:12;24.00;99.90
780;DHT22;373;49.342;8.146;2022-09-14T12:55:48;24.10;99.90
780;DHT22;373;49.342;8.146;2022-09-14T12:58:26;24.20;99.90
780;DHT22;373;49.342;8.146;2022-09-14T13:01:09;24.20;99.90
780;DHT22;373;49.342;8.146;2022-09-14T13:03:46;24.10;99.90
780;DHT22;373;49.342;8.146;2022-09-14T13:06:16;24.00;99.90
780;DHT22;373;49.342;8.146;2022-09-14T13:08:45;24.20;99.90
780;DHT22;373;49.342;8.146;2022-09-14T13:11:21;24.00;99.90
780;DHT22;373;49.342;8.146;2022-09-14T13:13:49;24.00;99.90
780;DHT22;373;49.342;8.146;2022-09-14T13:16:20;24.00;99.90
780;DHT22;373;49.342;8.146;2022-09-14T13:18:57;24.00;99.90
780;DHT22;373;49.342;8.146;2022-09-14T13:21:26;23.70;99.90
780;DHT22;373;49.342;8.146;2022-09-14T13:23:53;23.80;99.90
780;DHT22;373;49.342;8.146;2022-09-14T13:26:23;23.80;99.90
780;DHT22;373;49.342;8.146;2022-09-14T13:28:52;23.80;99.90
780;DHT22;373;49.342;8.146;2022-09-14T13:31:26;23.70;99.90
780;DHT22;373;49.342;8.146;2022-09-14T13:33:54;23.70;99.90
780;DHT22;373;49.342;8.146;2022-09-14T13:36:24;23.60;99.90
780;DHT22;373;49.342;8.146;2022-09-14T13:38:53;23.60;99.90
780;DHT22;373;49.342;8.146;2022-09-14T13:41:22;23.60;99.90
780;DHT22;373;49.342;8.146;2022-09-14T13:43:52;23.40;99.90
780;DHT22;373;49.342;8.146;2022-09-14T13:46:21;23.30;99.90
780;DHT22;373;49.342;8.146;2022-09-14T13:48:49;23.10;99.90
780;DHT22;373;49.342;8.146;2022-09-14T13:51:21;23.20;99.90
780;DHT22;373;49.342;8.146;2022-09-14T13:53:51;23.30;99.90
780;DHT22;373;49.342;8.146;2022-09-14T13:56:24;23.20;99.90
780;DHT22;373;49.342;8.146;2022-09-14T13:59:18;23.20;99.90
780;DHT22;373;49.342;8.146;2022-09-14T14:01:57;23.00;99.90
780;DHT22;373;49.342;8.146;2022-09-14T14:04:31;22.90;99.90
780;DHT22;373;49.342;8.146;2022-09-14T14:07:06;22.90;99.90
780;DHT22;373;49.342;8.146;2022-09-14T14:09:43;22.70;99.90
780;DHT22;373;49.342;8.146;2022-09-14T14:12:21;22.50;99.90
780;DHT22;373;49.342;8.146;2022-09-14T14:14:56;22.30;99.90
780;DHT22;373;49.342;8.146;2022-09-14T14:17:30;22.10;99.90
780;DHT22;373;49.342;8.146;2022-09-14T14:20:29;22.10;99.90
780;DHT22;373;49.342;8.146;2022-09-14T14:23:00;21.90;99.90
780;DHT22;373;49.342;8.146;2022-09-14T14:25:31;21.80;99.90
780;DHT22;373;49.342;8.146;2022-09-14T14:28:02;21.80;99.90
780;DHT22;373;49.342;8.146;2022-09-14T14:30:29;21.80;99.90
780;DHT22;373;49.342;8.146;2022-09-14T14:32:57;21.90;99.90
780;DHT22;373;49.342;8.146;2022-09-14T14:35:27;21.90;99.90
780;DHT22;373;49.342;8.146;2022-09-14T14:37:55;21.90;99.90
780;DHT22;373;49.342;8.146;2022-09-14T14:40:24;21.90;99.90
780;DHT22;373;49.342;8.146;2022-09-14T14:42:52;21.90;99.90
780;DHT22;373;49.342;8.146;2022-09-14T14:45:22;21.90;99.90
780;DHT22;373;49.342;8.146;2022-09-14T14:47:51;21.80;99.90
780;DHT22;373;49.342;8.146;2022-09-14T14:50:22;21.70;99.90
780;DHT22;373;49.342;8.146;2022-09-14T14:52:49;21.60;99.90
780;DHT22;373;49.342;8.146;2022-09-14T14:55:17;21.60;99.90
780;DHT22;373;49.342;8.146;2022-09-14T14:57:45;21.60;99.90
780;DHT22;373;49.342;8.146;2022-09-14T15:00:15;21.60;99.90
780;DHT22;373;49.342;8.146;2022-09-14T15:02:44;21.60;99.90
780;DHT22;373;49.342;8.146;2022-09-14T15:05:12;21.60;99.90
780;DHT22;373;49.342;8.146;2022-09-14T15:07:39;21.60;99.90
780;DHT22;373;49.342;8.146;2022-09-14T15:10:08;21.60;99.90
780;DHT22;373;49.342;8.146;2022-09-14T15:12:35;21.60;99.90
780;DHT22;373;49.342;8.146;2022-09-14T15:15:02;21.60;99.90
780;DHT22;373;49.342;8.146;2022-09-14T15:17:30;21.70;99.90
780;DHT22;373;49.342;8.146;2022-09-14T15:19:58;21.60;99.90
780;DHT22;373;49.342;8.146;2022-09-14T15:22:25;21.60;99.90
780;DHT22;373;49.342;8.146;2022-09-14T15:24:52;21.70;99.90
780;DHT22;373;49.342;8.146;2022-09-14T15:27:19;21.80;99.90
780;DHT22;373;49.342;8.146;2022-09-14T15:29:46;21.90;99.90
780;DHT22;373;49.342;8.146;2022-09-14T15:32:13;21.90;99.90
780;DHT22;373;49.342;8.146;2022-09-14T15:34:40;22.00;99.90
780;DHT22;373;49.342;8.146;2022-09-14T15:37:09;21.90;99.90
780;DHT22;373;49.342;8.146;2022-09-14T15:39:36;21.90;99.90
780;DHT22;373;49.342;8.146;2022-09-14T15:42:03;21.90;99.90
780;DHT22;373;49.342;8.146;2022-09-14T15:44:30;21.90;99.90
780;DHT22;373;49.342;8.146;2022-09-14T15:46:58;22.00;99.90
780;DHT22;373;49.342;8.146;2022-09-14T15:49:26;22.00;99.90
780;DHT22;373;49.342;8.146;2022-09-14T15:51:54;22.10;99.90
780;DHT22;373;49.342;8.146;2022-09-14T15:54:24;22.20;99.90
780;DHT22;373;49.342;8.146;2022-09-14T15:56:53;22.20;99.90
780;DHT22;373;49.342;8.146;2022-09-14T15:59:22;22.20;99.90
780;DHT22;373;49.342;8.146;2022-09-14T16:01:49;22.40;99.90
780;DHT22;373;49.342;8.146;2022-09-14T16:04:16;22.50;99.90
780;DHT22;373;49.342;8.146;2022-09-14T16:06:44;22.60;99.90
780;DHT22;373;49.342;8.146;2022-09-14T16:09:13;22.70;99.90
780;DHT22;373;49.342;8.146;2022-09-14T16:11:42;22.80;99.90
780;DHT22;373;49.342;8.146;2022-09-14T16:14:10;23.10;99.90
780;DHT22;373;49.342;8.146;2022-09-14T16:16:37;23.00;99.90
780;DHT22;373;49.342;8.146;2022-09-14T16:19:04;22.80;99.90
780;DHT22;373;49.342;8.146;2022-09-14T16:21:32;22.80;99.90
780;DHT22;373;49.342;8.146;2022-09-14T16:24:00;22.70;99.90
780;DHT22;373;49.342;8.146;2022-09-14T16:26:30;22.80;99.90
780;DHT22;373;49.342;8.146;2022-09-14T16:28:59;22.80;99.90
780;DHT22;373;49.342;8.146;2022-09-14T16:31:28;22.80;99.90
780;DHT22;373;49.342;8.146;2022-09-14T16:33:58;22.80;99.90
780;DHT22;373;49.342;8.146;2022-09-14T16:36:27;22.70;99.90
780;DHT22;373;49.342;8.146;2022-09-14T16:38:55;22.90;99.90
780;DHT22;373;49.342;8.146;2022-09-14T16:41:23;22.80;99.90
780;DHT22;373;49.342;8.146;2022-09-14T16:43:53;22.80;99.90
780;DHT22;373;49.342;8.146;2022-09-14T16:46:23;22.70;99.90
780;DHT22;373;49.342;8.146;2022-09-14T16:48:50;22.60;99.90
780;DHT22;373;49.342;8.146;2022-09-14T16:51:19;22.40;99.90
780;DHT22;373;49.342;8.146;2022-09-14T16:53:48;22.40;99.90
780;DHT22;373;49.342;8.146;2022-09-14T16:56:16;22.30;99.90
780;DHT22;373;49.342;8.146;2022-09-14T16:58:44;22.30;99.90
780;DHT22;373;49.342;8.146;2022-09-14T17:01:13;22.30;99.90
780;DHT22;373;49.342;8.146;2022-09-14T17:03:43;22.20;99.90
780;DHT22;373;49.342;8.146;2022-09-14T17:06:12;22.10;99.90
780;DHT22;373;49.342;8.146;2022-09-14T17:08:40;22.20;99.90